Semans, Canada
Current Conditions -  °F | °C
As of 1:39 PM on Friday 28 Nov 2014 (Local Time) from CYQR Reporting Station
Light Snow Light Snow  
Wind Chill: -8°   Ceiling: 1400
Heat Index: 10°   Visibility: 2mi
Dew Point:   Wind: 20mph
Humidity: 85%   Direction: 140°SE
Pressure: 29.53"   Gusts: 31mph
Location:  51.4°N, 104.73°W
Report Text: CYQR 281939Z 14017G27KT 2SM -SN BLSN OVC014 M12/M14 A2953 RMK SC8 SLP042
Loading
Personal Weather Stations






























Interactive Weather Map New forecast layout! Learn more

10-Day Weather Forecast

Advertisements
Track Severe Weather on mobile